sensor_id;sensor_type;location;lat;lon;timestamp;pressure;altitude;pressure_sealevel;temperature;humidity
20027;BME280;10174;42.688;23.344;2023-03-31T00:00:27;95265.22;;;7.35;62.15
20027;BME280;10174;42.688;23.344;2023-03-31T00:02:53;95288.44;;;7.51;62.22
20027;BME280;10174;42.688;23.344;2023-03-31T00:05:20;95284.50;;;7.54;62.33
20027;BME280;10174;42.688;23.344;2023-03-31T00:07:55;95293.13;;;7.78;60.86
20027;BME280;10174;42.688;23.344;2023-03-31T00:10:31;95273.47;;;7.50;61.85
20027;BME280;10174;42.688;23.344;2023-03-31T00:12:58;95213.25;;;7.25;61.84
20027;BME280;10174;42.688;23.344;2023-03-31T00:15:24;95269.25;;;7.54;61.47
20027;BME280;10174;42.688;23.344;2023-03-31T00:17:50;95248.06;;;7.30;61.79
20027;BME280;10174;42.688;23.344;2023-03-31T00:20:15;95253.06;;;7.44;61.53
20027;BME280;10174;42.688;23.344;2023-03-31T00:22:41;95268.75;;;7.57;62.01
20027;BME280;10174;42.688;23.344;2023-03-31T00:25:12;95266.72;;;7.64;59.63
20027;BME280;10174;42.688;23.344;2023-03-31T00:27:40;95259.34;;;7.72;59.54
20027;BME280;10174;42.688;23.344;2023-03-31T00:30:06;95141.84;;;7.04;59.15
20027;BME280;10174;42.688;23.344;2023-03-31T00:32:32;95279.41;;;7.91;59.52
20027;BME280;10174;42.688;23.344;2023-03-31T00:34:57;95279.94;;;7.71;60.46
20027;BME280;10174;42.688;23.344;2023-03-31T00:37:23;95263.91;;;7.54;60.31
20027;BME280;10174;42.688;23.344;2023-03-31T00:39:48;95258.41;;;7.61;60.82
20027;BME280;10174;42.688;23.344;2023-03-31T00:42:14;95262.47;;;7.85;60.61
20027;BME280;10174;42.688;23.344;2023-03-31T00:47:45;95247.22;;;7.64;60.93
20027;BME280;10174;42.688;23.344;2023-03-31T00:50:43;95259.50;;;7.82;60.77
20027;BME280;10174;42.688;23.344;2023-03-31T00:53:15;95232.50;;;7.83;59.37
20027;BME280;10174;42.688;23.344;2023-03-31T00:55:50;95250.06;;;7.96;60.15
20027;BME280;10174;42.688;23.344;2023-03-31T00:58:18;95241.34;;;7.84;60.57
20027;BME280;10174;42.688;23.344;2023-03-31T01:00:46;95244.56;;;7.86;61.07
20027;BME280;10174;42.688;23.344;2023-03-31T01:03:18;95189.28;;;7.70;60.80
20027;BME280;10174;42.688;23.344;2023-03-31T01:05:49;95233.13;;;8.13;59.74
20027;BME280;10174;42.688;23.344;2023-03-31T01:08:18;95157.53;;;7.78;59.80
20027;BME280;10174;42.688;23.344;2023-03-31T01:10:51;95241.31;;;8.45;59.10
20027;BME280;10174;42.688;23.344;2023-03-31T01:13:18;95237.63;;;8.29;60.29
20027;BME280;10174;42.688;23.344;2023-03-31T01:15:44;95240.41;;;8.17;61.56
20027;BME280;10174;42.688;23.344;2023-03-31T01:18:10;95236.88;;;8.12;62.58
20027;BME280;10174;42.688;23.344;2023-03-31T01:23:43;95235.75;;;8.30;61.90
20027;BME280;10174;42.688;23.344;2023-03-31T01:40:39;95257.28;;;8.62;61.34
20027;BME280;10174;42.688;23.344;2023-03-31T01:43:24;95139.25;;;7.92;61.46
20027;BME280;10174;42.688;23.344;2023-03-31T01:46:14;95262.34;;;8.59;62.55
20027;BME280;10174;42.688;23.344;2023-03-31T01:52:05;95273.41;;;8.67;62.59
20027;BME280;10174;42.688;23.344;2023-03-31T01:57:21;95280.13;;;8.70;62.41
20027;BME280;10174;42.688;23.344;2023-03-31T02:02:39;95259.16;;;8.62;61.92
20027;BME280;10174;42.688;23.344;2023-03-31T02:05:10;95282.88;;;8.75;61.89
20027;BME280;10174;42.688;23.344;2023-03-31T02:07:40;95277.91;;;8.89;59.20
20027;BME280;10174;42.688;23.344;2023-03-31T02:10:09;95259.06;;;8.79;59.97
20027;BME280;10174;42.688;23.344;2023-03-31T02:12:37;95256.88;;;8.76;60.44
20027;BME280;10174;42.688;23.344;2023-03-31T02:15:06;95280.69;;;8.99;59.97
20027;BME280;10174;42.688;23.344;2023-03-31T02:17:34;95285.50;;;8.97;60.53
20027;BME280;10174;42.688;23.344;2023-03-31T02:20:07;95303.28;;;9.08;61.31
20027;BME280;10174;42.688;23.344;2023-03-31T02:22:37;95289.53;;;9.00;62.86
20027;BME280;10174;42.688;23.344;2023-03-31T02:25:05;95302.56;;;9.18;62.98
20027;BME280;10174;42.688;23.344;2023-03-31T02:27:40;95305.88;;;8.98;65.51
20027;BME280;10174;42.688;23.344;2023-03-31T02:30:08;95290.75;;;8.87;66.47
20027;BME280;10174;42.688;23.344;2023-03-31T02:32:39;95264.44;;;8.56;67.59
20027;BME280;10174;42.688;23.344;2023-03-31T02:35:08;95316.78;;;8.64;68.06
20027;BME280;10174;42.688;23.344;2023-03-31T02:37:34;95324.34;;;8.72;68.10
20027;BME280;10174;42.688;23.344;2023-03-31T02:40:04;95323.34;;;8.56;70.95
20027;BME280;10174;42.688;23.344;2023-03-31T02:42:36;95319.19;;;8.44;73.33
20027;BME280;10174;42.688;23.344;2023-03-31T02:45:38;95326.22;;;8.50;72.63
20027;BME280;10174;42.688;23.344;2023-03-31T02:47:52;95327.91;;;8.56;75.52
20027;BME280;10174;42.688;23.344;2023-03-31T02:50:20;95313.06;;;8.26;75.12
20027;BME280;10174;42.688;23.344;2023-03-31T02:53:04;95313.81;;;8.22;73.75
20027;BME280;10174;42.688;23.344;2023-03-31T03:08:02;95258.13;;;8.01;80.04
20027;BME280;10174;42.688;23.344;2023-03-31T03:13:41;95279.19;;;8.15;84.53
20027;BME280;10174;42.688;23.344;2023-03-31T03:19:00;95263.19;;;7.98;87.76
20027;BME280;10174;42.688;23.344;2023-03-31T03:21:27;95217.22;;;7.79;88.09
20027;BME280;10174;42.688;23.344;2023-03-31T03:23:52;95254.69;;;8.23;87.80
20027;BME280;10174;42.688;23.344;2023-03-31T03:26:19;95261.50;;;8.14;87.74
20027;BME280;10174;42.688;23.344;2023-03-31T03:28:46;95241.03;;;7.80;89.08
20027;BME280;10174;42.688;23.344;2023-03-31T03:31:12;95231.31;;;7.74;89.39
20027;BME280;10174;42.688;23.344;2023-03-31T03:33:38;95252.28;;;7.82;90.23
20027;BME280;10174;42.688;23.344;2023-03-31T03:36:03;95264.97;;;7.92;90.05
20027;BME280;10174;42.688;23.344;2023-03-31T03:38:29;95254.59;;;7.96;89.90
20027;BME280;10174;42.688;23.344;2023-03-31T03:40:55;95187.44;;;7.53;90.18
20027;BME280;10174;42.688;23.344;2023-03-31T03:43:20;95114.13;;;7.10;91.20
20027;BME280;10174;42.688;23.344;2023-03-31T03:45:49;95212.28;;;7.71;91.11
20027;BME280;10174;42.688;23.344;2023-03-31T03:48:15;95202.25;;;7.83;91.28
20027;BME280;10174;42.688;23.344;2023-03-31T03:50:40;95237.91;;;8.11;91.89
20027;BME280;10174;42.688;23.344;2023-03-31T03:53:06;95237.63;;;8.29;90.69
20027;BME280;10174;42.688;23.344;2023-03-31T03:55:32;95235.00;;;8.34;90.23
20027;BME280;10174;42.688;23.344;2023-03-31T03:57:58;95234.38;;;8.49;89.40
20027;BME280;10174;42.688;23.344;2023-03-31T04:00:23;95228.31;;;8.59;88.33
20027;BME280;10174;42.688;23.344;2023-03-31T04:02:49;95110.31;;;7.89;87.31
20027;BME280;10174;42.688;23.344;2023-03-31T04:05:15;95194.28;;;8.32;87.46
20027;BME280;10174;42.688;23.344;2023-03-31T04:07:40;95230.00;;;8.65;85.87
20027;BME280;10174;42.688;23.344;2023-03-31T04:10:06;95251.13;;;8.89;84.04
20027;BME280;10174;42.688;23.344;2023-03-31T04:12:33;95246.22;;;8.81;85.16
20027;BME280;10174;42.688;23.344;2023-03-31T04:14:59;95246.28;;;8.86;84.71
20027;BME280;10174;42.688;23.344;2023-03-31T04:17:25;95261.91;;;8.99;82.91
20027;BME280;10174;42.688;23.344;2023-03-31T04:20:00;95252.66;;;8.80;84.79
20027;BME280;10174;42.688;23.344;2023-03-31T04:22:29;95193.28;;;8.38;86.02
20027;BME280;10174;42.688;23.344;2023-03-31T04:24:59;95227.88;;;8.67;85.63
20027;BME280;10174;42.688;23.344;2023-03-31T04:27:24;95242.47;;;8.82;84.74
20027;BME280;10174;42.688;23.344;2023-03-31T04:29:52;95247.94;;;8.92;84.36
20027;BME280;10174;42.688;23.344;2023-03-31T04:32:20;95251.00;;;9.06;84.15
20027;BME280;10174;42.688;23.344;2023-03-31T04:34:47;95246.81;;;8.88;84.71
20027;BME280;10174;42.688;23.344;2023-03-31T04:37:14;95200.50;;;8.60;84.23
20027;BME280;10174;42.688;23.344;2023-03-31T04:39:40;95233.81;;;9.02;84.03
20027;BME280;10174;42.688;23.344;2023-03-31T04:42:05;95240.97;;;9.23;81.04
20027;BME280;10174;42.688;23.344;2023-03-31T04:44:30;95227.28;;;9.25;78.85
20027;BME280;10174;42.688;23.344;2023-03-31T04:46:56;95215.88;;;9.40;81.09
20027;BME280;10174;42.688;23.344;2023-03-31T04:49:23;95217.47;;;9.36;81.28
20027;BME280;10174;42.688;23.344;2023-03-31T04:51:49;95209.16;;;9.37;79.90
20027;BME280;10174;42.688;23.344;2023-03-31T04:54:15;95226.44;;;9.52;78.08
20027;BME280;10174;42.688;23.344;2023-03-31T04:56:40;95229.66;;;9.54;78.00
20027;BME280;10174;42.688;23.344;2023-03-31T04:59:06;95198.91;;;9.24;80.67
20027;BME280;10174;42.688;23.344;2023-03-31T05:01:32;95226.78;;;9.28;80.92
20027;BME280;10174;42.688;23.344;2023-03-31T05:04:01;95224.97;;;9.34;81.84
20027;BME280;10174;42.688;23.344;2023-03-31T05:06:26;95216.28;;;9.21;80.89
20027;BME280;10174;42.688;23.344;2023-03-31T05:08:52;95217.94;;;9.27;81.00
20027;BME280;10174;42.688;23.344;2023-03-31T05:11:17;95225.25;;;9.37;81.73
20027;BME280;10174;42.688;23.344;2023-03-31T05:13:43;95216.84;;;9.66;79.89
20027;BME280;10174;42.688;23.344;2023-03-31T05:16:10;95224.72;;;9.78;80.09
20027;BME280;10174;42.688;23.344;2023-03-31T05:18:39;95209.94;;;9.75;78.47
20027;BME280;10174;42.688;23.344;2023-03-31T05:21:13;95215.38;;;9.91;77.58
20027;BME280;10174;42.688;23.344;2023-03-31T05:23:39;95210.00;;;9.86;76.85
20027;BME280;10174;42.688;23.344;2023-03-31T05:26:04;95192.75;;;9.71;75.88
20027;BME280;10174;42.688;23.344;2023-03-31T05:28:30;95187.59;;;9.65;76.20
20027;BME280;10174;42.688;23.344;2023-03-31T05:30:58;95201.34;;;9.73;74.95
20027;BME280;10174;42.688;23.344;2023-03-31T05:33:25;95208.41;;;9.90;74.43
20027;BME280;10174;42.688;23.344;2023-03-31T05:35:51;95106.72;;;9.30;74.63
20027;BME280;10174;42.688;23.344;2023-03-31T05:38:16;95178.84;;;9.79;75.13
20027;BME280;10174;42.688;23.344;2023-03-31T05:40:42;95087.28;;;9.07;73.74
20027;BME280;10174;42.688;23.344;2023-03-31T05:43:07;95206.84;;;9.99;73.84
20027;BME280;10174;42.688;23.344;2023-03-31T05:45:33;95196.41;;;10.08;73.80
20027;BME280;10174;42.688;23.344;2023-03-31T05:47:58;95080.00;;;9.56;73.19
20027;BME280;10174;42.688;23.344;2023-03-31T05:50:24;95173.72;;;10.41;71.60
20027;BME280;10174;42.688;23.344;2023-03-31T05:52:50;95113.97;;;10.03;72.23
20027;BME280;10174;42.688;23.344;2023-03-31T05:55:15;95203.88;;;10.79;70.21
20027;BME280;10174;42.688;23.344;2023-03-31T05:57:40;95094.91;;;10.05;68.86
20027;BME280;10174;42.688;23.344;2023-03-31T06:00:06;95120.53;;;10.38;68.86
20027;BME280;10174;42.688;23.344;2023-03-31T06:02:34;95174.84;;;10.66;68.38
20027;BME280;10174;42.688;23.344;2023-03-31T06:05:00;95204.44;;;11.12;66.57
20027;BME280;10174;42.688;23.344;2023-03-31T06:07:25;95205.75;;;10.79;67.74
20027;BME280;10174;42.688;23.344;2023-03-31T06:09:50;95200.41;;;10.89;68.13
20027;BME280;10174;42.688;23.344;2023-03-31T06:12:16;95210.09;;;11.05;67.61
20027;BME280;10174;42.688;23.344;2023-03-31T06:14:41;95131.56;;;10.47;66.86
20027;BME280;10174;42.688;23.344;2023-03-31T06:17:07;95199.06;;;10.81;68.28
20027;BME280;10174;42.688;23.344;2023-03-31T06:19:32;95221.09;;;10.99;67.78
20027;BME280;10174;42.688;23.344;2023-03-31T06:21:57;95069.53;;;10.54;67.51
20027;BME280;10174;42.688;23.344;2023-03-31T06:24:23;95194.75;;;11.27;66.99
20027;BME280;10174;42.688;23.344;2023-03-31T06:26:48;95202.53;;;11.28;67.22
20027;BME280;10174;42.688;23.344;2023-03-31T06:29:14;95204.97;;;11.40;67.20
20027;BME280;10174;42.688;23.344;2023-03-31T06:31:39;95171.88;;;11.45;65.63
20027;BME280;10174;42.688;23.344;2023-03-31T06:34:05;95190.47;;;11.26;66.04
20027;BME280;10174;42.688;23.344;2023-03-31T06:36:30;95185.06;;;11.31;65.72
20027;BME280;10174;42.688;23.344;2023-03-31T06:38:56;95189.63;;;11.51;65.78
20027;BME280;10174;42.688;23.344;2023-03-31T06:41:21;95105.50;;;10.99;64.71
20027;BME280;10174;42.688;23.344;2023-03-31T06:43:47;95195.72;;;11.92;64.91
20027;BME280;10174;42.688;23.344;2023-03-31T06:46:12;95138.69;;;11.80;63.13
20027;BME280;10174;42.688;23.344;2023-03-31T06:48:38;95178.19;;;12.05;62.39
20027;BME280;10174;42.688;23.344;2023-03-31T06:51:05;95206.81;;;12.51;60.11
20027;BME280;10174;42.688;23.344;2023-03-31T06:53:31;95202.13;;;12.72;61.58
20027;BME280;10174;42.688;23.344;2023-03-31T06:55:56;95149.72;;;12.49;59.37
20027;BME280;10174;42.688;23.344;2023-03-31T06:58:22;95204.09;;;12.96;58.68
20027;BME280;10174;42.688;23.344;2023-03-31T07:00:48;95180.63;;;13.01;60.38
20027;BME280;10174;42.688;23.344;2023-03-31T07:03:14;95208.97;;;13.28;59.54
20027;BME280;10174;42.688;23.344;2023-03-31T07:05:52;95191.78;;;13.24;58.78
20027;BME280;10174;42.688;23.344;2023-03-31T07:08:18;95173.91;;;13.33;58.63
20027;BME280;10174;42.688;23.344;2023-03-31T07:10:44;95161.31;;;14.01;56.25
20027;BME280;10174;42.688;23.344;2023-03-31T07:13:17;95144.13;;;13.97;56.96
20027;BME280;10174;42.688;23.344;2023-03-31T07:15:43;95078.78;;;13.71;55.97
20027;BME280;10174;42.688;23.344;2023-03-31T07:18:10;95151.38;;;13.97;56.30
20027;BME280;10174;42.688;23.344;2023-03-31T07:20:37;95070.25;;;13.64;56.38
20027;BME280;10174;42.688;23.344;2023-03-31T07:23:04;95102.09;;;13.38;58.47
20027;BME280;10174;42.688;23.344;2023-03-31T07:25:30;95121.28;;;13.60;54.87
20027;BME280;10174;42.688;23.344;2023-03-31T07:27:55;95071.69;;;13.27;51.40
20027;BME280;10174;42.688;23.344;2023-03-31T07:30:21;95144.97;;;13.68;50.52
20027;BME280;10174;42.688;23.344;2023-03-31T07:32:48;95135.84;;;13.64;50.70
20027;BME280;10174;42.688;23.344;2023-03-31T07:35:14;95135.75;;;13.69;51.45
20027;BME280;10174;42.688;23.344;2023-03-31T07:37:43;95142.13;;;13.79;50.75
20027;BME280;10174;42.688;23.344;2023-03-31T07:40:11;95148.19;;;13.70;50.92
20027;BME280;10174;42.688;23.344;2023-03-31T07:42:39;95124.47;;;13.67;50.53
20027;BME280;10174;42.688;23.344;2023-03-31T07:45:06;95141.41;;;13.97;51.02
20027;BME280;10174;42.688;23.344;2023-03-31T07:47:32;95106.34;;;13.68;49.63
20027;BME280;10174;42.688;23.344;2023-03-31T07:49:58;95083.06;;;13.53;49.63
20027;BME280;10174;42.688;23.344;2023-03-31T07:52:23;95133.34;;;13.92;49.31
20027;BME280;10174;42.688;23.344;2023-03-31T07:54:49;95109.00;;;13.49;49.99
20027;BME280;10174;42.688;23.344;2023-03-31T07:57:15;95109.63;;;13.65;49.72
20027;BME280;10174;42.688;23.344;2023-03-31T07:59:42;95138.63;;;14.46;48.25
20027;BME280;10174;42.688;23.344;2023-03-31T08:02:11;95067.06;;;14.43;46.91
20027;BME280;10174;42.688;23.344;2023-03-31T08:04:37;95137.81;;;15.35;46.04
20027;BME280;10174;42.688;23.344;2023-03-31T08:07:03;95087.31;;;15.44;44.46
20027;BME280;10174;42.688;23.344;2023-03-31T08:09:29;95105.56;;;15.06;44.83
20027;BME280;10174;42.688;23.344;2023-03-31T08:11:54;95110.56;;;15.45;45.12
20027;BME280;10174;42.688;23.344;2023-03-31T08:14:20;95106.34;;;15.39;44.83
20027;BME280;10174;42.688;23.344;2023-03-31T08:16:45;95101.88;;;15.16;45.12
20027;BME280;10174;42.688;23.344;2023-03-31T08:19:10;95088.28;;;14.50;45.94
20027;BME280;10174;42.688;23.344;2023-03-31T08:21:36;95082.81;;;14.55;46.60
20027;BME280;10174;42.688;23.344;2023-03-31T08:24:01;95051.72;;;14.00;46.43
20027;BME280;10174;42.688;23.344;2023-03-31T08:26:27;95096.03;;;14.37;47.24
20027;BME280;10174;42.688;23.344;2023-03-31T08:28:52;95026.34;;;14.53;45.63
20027;BME280;10174;42.688;23.344;2023-03-31T08:31:21;95103.41;;;15.82;43.28
20027;BME280;10174;42.688;23.344;2023-03-31T08:33:48;95022.56;;;14.35;44.92
20027;BME280;10174;42.688;23.344;2023-03-31T08:36:13;95075.72;;;14.78;45.17
20027;BME280;10174;42.688;23.344;2023-03-31T08:38:40;95047.16;;;14.53;45.33
20027;BME280;10174;42.688;23.344;2023-03-31T08:41:13;95103.91;;;14.91;44.87
20027;BME280;10174;42.688;23.344;2023-03-31T08:43:45;95093.91;;;15.38;43.72
20027;BME280;10174;42.688;23.344;2023-03-31T08:46:14;95045.78;;;15.21;43.82
20027;BME280;10174;42.688;23.344;2023-03-31T08:48:45;95070.56;;;15.56;44.05
20027;BME280;10174;42.688;23.344;2023-03-31T08:51:20;95111.88;;;15.01;44.43
20027;BME280;10174;42.688;23.344;2023-03-31T08:54:12;95088.81;;;14.71;45.63
20027;BME280;10174;42.688;23.344;2023-03-31T08:56:41;94961.91;;;14.08;44.74
20027;BME280;10174;42.688;23.344;2023-03-31T08:59:29;95078.56;;;14.49;46.01
20027;BME280;10174;42.688;23.344;2023-03-31T09:02:01;95051.88;;;14.28;45.91
20027;BME280;10174;42.688;23.344;2023-03-31T09:07:03;95056.34;;;14.52;45.78
20027;BME280;10174;42.688;23.344;2023-03-31T09:11:59;94930.78;;;14.30;44.52
20027;BME280;10174;42.688;23.344;2023-03-31T09:14:35;95049.56;;;16.17;42.51
20027;BME280;10174;42.688;23.344;2023-03-31T09:17:11;95047.69;;;18.46;38.54
20027;BME280;10174;42.688;23.344;2023-03-31T09:19:56;95055.31;;;19.70;35.02
20027;BME280;10174;42.688;23.344;2023-03-31T09:22:35;95059.16;;;19.69;35.74
20027;BME280;10174;42.688;23.344;2023-03-31T09:25:19;95037.31;;;19.39;35.56
20027;BME280;10174;42.688;23.344;2023-03-31T09:27:45;95036.91;;;19.11;35.76
20027;BME280;10174;42.688;23.344;2023-03-31T09:30:16;95060.81;;;18.71;36.14
20027;BME280;10174;42.688;23.344;2023-03-31T09:32:50;94946.13;;;20.05;33.00
20027;BME280;10174;42.688;23.344;2023-03-31T09:35:21;95047.81;;;19.97;34.35
20027;BME280;10174;42.688;23.344;2023-03-31T09:37:47;95056.31;;;19.01;35.65
20027;BME280;10174;42.688;23.344;2023-03-31T09:40:22;95006.00;;;17.85;37.16
20027;BME280;10174;42.688;23.344;2023-03-31T09:43:05;94945.34;;;17.32;37.45
20027;BME280;10174;42.688;23.344;2023-03-31T09:45:31;95006.59;;;19.30;35.14
20027;BME280;10174;42.688;23.344;2023-03-31T09:48:01;95048.06;;;20.13;34.06
20027;BME280;10174;42.688;23.344;2023-03-31T09:50:28;95031.66;;;20.22;33.72
20027;BME280;10174;42.688;23.344;2023-03-31T09:52:56;95038.69;;;19.07;35.68
20027;BME280;10174;42.688;23.344;2023-03-31T09:55:27;95027.50;;;20.58;33.03
20027;BME280;10174;42.688;23.344;2023-03-31T09:57:59;95022.50;;;21.60;31.76
20027;BME280;10174;42.688;23.344;2023-03-31T10:00:25;95020.41;;;20.99;31.70
20027;BME280;10174;42.688;23.344;2023-03-31T10:02:56;95014.88;;;19.72;34.28
20027;BME280;10174;42.688;23.344;2023-03-31T10:05:32;94950.75;;;20.05;33.38
20027;BME280;10174;42.688;23.344;2023-03-31T10:10:50;95018.41;;;19.82;33.35
20027;BME280;10174;42.688;23.344;2023-03-31T10:13:23;95019.69;;;18.63;35.78
20027;BME280;10174;42.688;23.344;2023-03-31T10:15:54;94952.91;;;17.70;36.31
20027;BME280;10174;42.688;23.344;2023-03-31T10:18:35;95006.25;;;18.32;36.58
20027;BME280;10174;42.688;23.344;2023-03-31T10:21:03;95012.00;;;18.30;36.08
20027;BME280;10174;42.688;23.344;2023-03-31T10:23:31;94981.94;;;19.65;33.85
20027;BME280;10174;42.688;23.344;2023-03-31T10:25:58;95004.91;;;20.36;33.60
20027;BME280;10174;42.688;23.344;2023-03-31T10:28:24;94956.50;;;21.00;31.65
20027;BME280;10174;42.688;23.344;2023-03-31T10:30:53;94997.75;;;20.86;31.86
20027;BME280;10174;42.688;23.344;2023-03-31T10:33:23;94997.19;;;19.10;34.46
20027;BME280;10174;42.688;23.344;2023-03-31T10:36:06;94953.50;;;19.75;33.21
20027;BME280;10174;42.688;23.344;2023-03-31T10:38:36;94979.41;;;19.21;34.67
20027;BME280;10174;42.688;23.344;2023-03-31T10:41:05;94939.09;;;18.32;35.36
20027;BME280;10174;42.688;23.344;2023-03-31T10:46:02;94987.03;;;18.11;37.41
20027;BME280;10174;42.688;23.344;2023-03-31T10:48:36;94985.59;;;18.05;38.00
20027;BME280;10174;42.688;23.344;2023-03-31T10:51:10;94943.31;;;17.06;39.92
20027;BME280;10174;42.688;23.344;2023-03-31T10:53:46;94977.13;;;18.59;37.73
20027;BME280;10174;42.688;23.344;2023-03-31T10:56:38;94969.50;;;19.08;36.74
20027;BME280;10174;42.688;23.344;2023-03-31T10:59:20;94974.00;;;17.64;38.75
20027;BME280;10174;42.688;23.344;2023-03-31T11:02:20;94977.94;;;17.49;39.46
20027;BME280;10174;42.688;23.344;2023-03-31T11:05:17;94964.59;;;17.88;38.67
20027;BME280;10174;42.688;23.344;2023-03-31T11:13:20;94963.03;;;17.95;38.12
20027;BME280;10174;42.688;23.344;2023-03-31T11:16:04;94947.28;;;17.49;39.19
20027;BME280;10174;42.688;23.344;2023-03-31T11:29:53;94931.88;;;18.19;37.64
20027;BME280;10174;42.688;23.344;2023-03-31T11:42:55;94795.53;;;18.00;36.51
20027;BME280;10174;42.688;23.344;2023-03-31T11:45:36;94911.44;;;18.04;37.58
20027;BME280;10174;42.688;23.344;2023-03-31T11:48:08;94889.19;;;18.20;37.23
20027;BME280;10174;42.688;23.344;2023-03-31T11:50:36;94925.00;;;17.95;37.75
20027;BME280;10174;42.688;23.344;2023-03-31T11:55:39;94888.06;;;17.02;40.27
20027;BME280;10174;42.688;23.344;2023-03-31T11:58:13;94884.88;;;17.00;40.01
20027;BME280;10174;42.688;23.344;2023-03-31T12:01:05;94869.94;;;17.20;39.38
20027;BME280;10174;42.688;23.344;2023-03-31T12:06:05;94861.53;;;18.09;37.31
20027;BME280;10174;42.688;23.344;2023-03-31T12:11:21;94810.75;;;18.95;35.79
20027;BME280;10174;42.688;23.344;2023-03-31T12:13:53;94870.91;;;20.04;34.98
20027;BME280;10174;42.688;23.344;2023-03-31T12:16:22;94879.72;;;20.22;34.57
20027;BME280;10174;42.688;23.344;2023-03-31T12:21:32;94840.16;;;19.53;35.25
20027;BME280;10174;42.688;23.344;2023-03-31T12:23:59;94848.28;;;19.11;35.54
20027;BME280;10174;42.688;23.344;2023-03-31T12:26:58;94857.69;;;18.75;36.62
20027;BME280;10174;42.688;23.344;2023-03-31T12:29:35;94876.72;;;18.27;37.31
20027;BME280;10174;42.688;23.344;2023-03-31T12:32:17;94851.13;;;17.58;38.57
20027;BME280;10174;42.688;23.344;2023-03-31T12:38:01;94850.00;;;17.33;39.17
20027;BME280;10174;42.688;23.344;2023-03-31T12:46:29;94848.75;;;17.83;38.33
20027;BME280;10174;42.688;23.344;2023-03-31T12:52:09;94820.47;;;18.02;38.10
20027;BME280;10174;42.688;23.344;2023-03-31T12:57:30;94798.06;;;18.13;36.88
20027;BME280;10174;42.688;23.344;2023-03-31T13:00:26;94808.59;;;18.32;37.06
20027;BME280;10174;42.688;23.344;2023-03-31T13:03:34;94813.38;;;18.36;37.62
20027;BME280;10174;42.688;23.344;2023-03-31T13:06:02;94793.38;;;18.40;37.30
20027;BME280;10174;42.688;23.344;2023-03-31T13:11:40;94783.25;;;18.79;37.42
20027;BME280;10174;42.688;23.344;2023-03-31T13:16:47;94721.03;;;18.48;36.63
20027;BME280;10174;42.688;23.344;2023-03-31T13:19:34;94743.16;;;18.67;36.69
20027;BME280;10174;42.688;23.344;2023-03-31T13:22:01;94735.94;;;18.42;36.82
20027;BME280;10174;42.688;23.344;2023-03-31T13:24:28;94716.06;;;18.11;37.25
20027;BME280;10174;42.688;23.344;2023-03-31T13:26:56;94735.94;;;18.42;37.05
20027;BME280;10174;42.688;23.344;2023-03-31T13:29:41;94709.88;;;17.93;37.77
20027;BME280;10174;42.688;23.344;2023-03-31T13:32:24;94702.28;;;18.16;37.73
20027;BME280;10174;42.688;23.344;2023-03-31T13:35:12;94675.75;;;18.13;38.03
20027;BME280;10174;42.688;23.344;2023-03-31T13:39:01;94709.75;;;18.58;37.41
20027;BME280;10174;42.688;23.344;2023-03-31T13:41:19;94708.44;;;18.34;37.78
20027;BME280;10174;42.688;23.344;2023-03-31T13:46:25;94688.44;;;18.01;38.17
20027;BME280;10174;42.688;23.344;2023-03-31T13:52:02;94655.59;;;17.76;38.64
20027;BME280;10174;42.688;23.344;2023-03-31T14:00:25;94666.28;;;17.81;38.67
20027;BME280;10174;42.688;23.344;2023-03-31T14:03:16;94568.97;;;17.36;38.24
20027;BME280;10174;42.688;23.344;2023-03-31T14:11:22;94628.38;;;17.93;37.73
20027;BME280;10174;42.688;23.344;2023-03-31T14:14:14;94663.78;;;18.44;38.06
20027;BME280;10174;42.688;23.344;2023-03-31T14:17:02;94661.47;;;18.55;37.15
20027;BME280;10174;42.688;23.344;2023-03-31T14:20:04;94661.94;;;18.57;37.52
20027;BME280;10174;42.688;23.344;2023-03-31T14:39:23;94635.03;;;18.05;38.43
20027;BME280;10174;42.688;23.344;2023-03-31T14:41:55;94630.91;;;17.98;38.37
20027;BME280;10174;42.688;23.344;2023-03-31T14:44:24;94622.41;;;18.00;38.68
20027;BME280;10174;42.688;23.344;2023-03-31T14:46:50;94616.09;;;18.17;38.43
20027;BME280;10174;42.688;23.344;2023-03-31T14:49:23;94562.72;;;17.83;38.68
20027;BME280;10174;42.688;23.344;2023-03-31T14:51:51;94613.34;;;18.26;38.33
20027;BME280;10174;42.688;23.344;2023-03-31T14:54:18;94617.47;;;18.32;38.37
20027;BME280;10174;42.688;23.344;2023-03-31T14:56:55;94615.44;;;18.50;37.85
20027;BME280;10174;42.688;23.344;2023-03-31T14:59:28;94615.66;;;18.45;38.40
20027;BME280;10174;42.688;23.344;2023-03-31T15:01:59;94548.72;;;18.02;37.82
20027;BME280;10174;42.688;23.344;2023-03-31T15:04:28;94590.94;;;18.29;38.31
20027;BME280;10174;42.688;23.344;2023-03-31T15:06:58;94572.13;;;18.24;38.45
20027;BME280;10174;42.688;23.344;2023-03-31T15:09:29;94602.19;;;18.48;38.42
20027;BME280;10174;42.688;23.344;2023-03-31T15:11:59;94502.75;;;17.96;38.30
20027;BME280;10174;42.688;23.344;2023-03-31T15:14:34;94589.63;;;18.35;38.21
20027;BME280;10174;42.688;23.344;2023-03-31T15:17:01;94615.81;;;18.40;38.14
20027;BME280;10174;42.688;23.344;2023-03-31T15:19:33;94613.78;;;18.07;38.75
20027;BME280;10174;42.688;23.344;2023-03-31T15:22:07;94596.19;;;17.66;39.03
20027;BME280;10174;42.688;23.344;2023-03-31T15:24:34;94606.69;;;17.76;39.34
20027;BME280;10174;42.688;23.344;2023-03-31T15:27:04;94588.25;;;17.52;39.75
20027;BME280;10174;42.688;23.344;2023-03-31T15:30:05;94608.69;;;17.49;40.04
20027;BME280;10174;42.688;23.344;2023-03-31T15:32:35;94594.66;;;17.38;40.07
20027;BME280;10174;42.688;23.344;2023-03-31T15:35:03;94582.09;;;17.25;40.44
20027;BME280;10174;42.688;23.344;2023-03-31T15:37:38;94602.50;;;17.40;40.22
20027;BME280;10174;42.688;23.344;2023-03-31T15:40:16;94488.00;;;16.73;40.05